sensor_id;sensor_type;location;lat;lon;timestamp;P1;durP1;ratioP1;P2;durP2;ratioP2
55009;SDS011;40903;51.638;7.528;2023-05-10T07:51:06;39.67;;;29.27;;
55009;SDS011;40903;51.638;7.528;2023-05-10T07:53:34;38.83;;;28.90;;
55009;SDS011;40903;51.638;7.528;2023-05-10T07:56:18;35.37;;;27.03;;
55009;SDS011;40903;51.638;7.528;2023-05-10T07:59:00;34.67;;;26.83;;
55009;SDS011;40903;51.638;7.528;2023-05-10T08:01:30;33.33;;;25.50;;
55009;SDS011;40903;51.638;7.528;2023-05-10T08:03:57;32.30;;;25.13;;
55009;SDS011;40903;51.638;7.528;2023-05-10T08:06:22;31.33;;;24.17;;
55009;SDS011;40903;51.638;7.528;2023-05-10T08:08:48;30.13;;;23.63;;
55009;SDS011;40903;51.638;7.528;2023-05-10T08:11:15;27.83;;;21.57;;
55009;SDS011;40903;51.638;7.528;2023-05-10T08:45:41;37.70;;;30.43;;
55009;SDS011;40903;51.638;7.528;2023-05-10T08:48:10;40.47;;;30.93;;
55009;SDS011;40903;51.638;7.528;2023-05-10T08:50:36;39.30;;;31.53;;
55009;SDS011;40903;51.638;7.528;2023-05-10T18:36:13;8.60;;;5.47;;
55009;SDS011;40903;51.638;7.528;2023-05-10T18:38:38;8.97;;;6.67;;
55009;SDS011;40903;51.638;7.528;2023-05-10T18:41:05;12.03;;;9.27;;
55009;SDS011;40903;51.638;7.528;2023-05-10T18:43:31;13.93;;;8.57;;
55009;SDS011;40903;51.638;7.528;2023-05-10T18:45:58;13.97;;;9.33;;
55009;SDS011;40903;51.638;7.528;2023-05-10T18:48:23;11.03;;;8.23;;
55009;SDS011;40903;51.638;7.528;2023-05-10T18:50:49;9.23;;;8.33;;
55009;SDS011;40903;51.638;7.528;2023-05-10T18:53:14;9.67;;;7.67;;
55009;SDS011;40903;51.638;7.528;2023-05-10T18:55:39;11.60;;;9.30;;
55009;SDS011;40903;51.638;7.528;2023-05-10T18:58:05;12.67;;;9.90;;
55009;SDS011;40903;51.638;7.528;2023-05-10T19:00:30;12.23;;;9.93;;
55009;SDS011;40903;51.638;7.528;2023-05-10T19:02:55;11.97;;;9.77;;
55009;SDS011;40903;51.638;7.528;2023-05-10T19:05:21;12.30;;;9.30;;
55009;SDS011;40903;51.638;7.528;2023-05-10T19:07:51;14.43;;;10.37;;
55009;SDS011;40903;51.638;7.528;2023-05-10T19:10:16;11.13;;;9.93;;
55009;SDS011;40903;51.638;7.528;2023-05-10T19:34:30;14.17;;;12.40;;
55009;SDS011;40903;51.638;7.528;2023-05-10T19:36:56;13.10;;;11.47;;
55009;SDS011;40903;51.638;7.528;2023-05-10T19:39:21;17.33;;;13.13;;
55009;SDS011;40903;51.638;7.528;2023-05-10T19:41:46;18.17;;;12.87;;
55009;SDS011;40903;51.638;7.528;2023-05-10T19:44:13;14.40;;;12.90;;
55009;SDS011;40903;51.638;7.528;2023-05-10T19:46:38;14.57;;;12.50;;
55009;SDS011;40903;51.638;7.528;2023-05-10T19:49:04;14.70;;;12.50;;
55009;SDS011;40903;51.638;7.528;2023-05-10T19:51:29;15.87;;;12.93;;
55009;SDS011;40903;51.638;7.528;2023-05-10T19:53:54;13.13;;;11.67;;
55009;SDS011;40903;51.638;7.528;2023-05-10T19:56:20;13.93;;;11.90;;
55009;SDS011;40903;51.638;7.528;2023-05-10T19:58:45;15.17;;;13.47;;
55009;SDS011;40903;51.638;7.528;2023-05-10T20:01:11;12.83;;;11.43;;
55009;SDS011;40903;51.638;7.528;2023-05-10T20:03:37;16.37;;;14.10;;
55009;SDS011;40903;51.638;7.528;2023-05-10T20:06:03;13.30;;;11.37;;
55009;SDS011;40903;51.638;7.528;2023-05-10T20:08:28;14.57;;;13.07;;
55009;SDS011;40903;51.638;7.528;2023-05-10T20:10:54;15.03;;;13.37;;
55009;SDS011;40903;51.638;7.528;2023-05-10T20:13:23;16.70;;;13.90;;
55009;SDS011;40903;51.638;7.528;2023-05-10T20:15:48;15.30;;;12.80;;
55009;SDS011;40903;51.638;7.528;2023-05-10T20:18:14;14.93;;;13.33;;
55009;SDS011;40903;51.638;7.528;2023-05-10T20:20:39;15.63;;;13.53;;
55009;SDS011;40903;51.638;7.528;2023-05-10T20:23:04;15.33;;;13.70;;
55009;SDS011;40903;51.638;7.528;2023-05-10T20:25:30;17.03;;;14.30;;
55009;SDS011;40903;51.638;7.528;2023-05-10T20:27:55;14.93;;;13.03;;
55009;SDS011;40903;51.638;7.528;2023-05-10T20:30:20;18.80;;;14.30;;
55009;SDS011;40903;51.638;7.528;2023-05-10T20:32:46;16.60;;;13.00;;
55009;SDS011;40903;51.638;7.528;2023-05-10T20:35:11;15.67;;;13.13;;
55009;SDS011;40903;51.638;7.528;2023-05-10T20:37:37;16.87;;;13.50;;
55009;SDS011;40903;51.638;7.528;2023-05-10T20:40:03;17.03;;;13.50;;
55009;SDS011;40903;51.638;7.528;2023-05-10T20:42:29;15.97;;;14.07;;
55009;SDS011;40903;51.638;7.528;2023-05-10T20:44:54;16.50;;;14.50;;
55009;SDS011;40903;51.638;7.528;2023-05-10T20:47:19;14.33;;;12.83;;
55009;SDS011;40903;51.638;7.528;2023-05-10T20:49:47;17.87;;;14.50;;
55009;SDS011;40903;51.638;7.528;2023-05-10T20:52:12;15.80;;;13.27;;
55009;SDS011;40903;51.638;7.528;2023-05-10T20:54:38;16.37;;;14.37;;
55009;SDS011;40903;51.638;7.528;2023-05-10T20:57:03;19.30;;;15.17;;
55009;SDS011;40903;51.638;7.528;2023-05-10T20:59:29;20.33;;;15.20;;
55009;SDS011;40903;51.638;7.528;2023-05-10T21:01:55;17.63;;;15.20;;
55009;SDS011;40903;51.638;7.528;2023-05-10T21:04:20;18.00;;;15.40;;
55009;SDS011;40903;51.638;7.528;2023-05-10T21:06:46;19.87;;;16.37;;
55009;SDS011;40903;51.638;7.528;2023-05-10T21:09:11;21.17;;;17.23;;
55009;SDS011;40903;51.638;7.528;2023-05-10T21:11:36;19.93;;;16.53;;
55009;SDS011;40903;51.638;7.528;2023-05-10T21:14:05;20.80;;;17.10;;
55009;SDS011;40903;51.638;7.528;2023-05-10T21:16:31;18.13;;;14.90;;
55009;SDS011;40903;51.638;7.528;2023-05-10T21:18:57;19.50;;;16.70;;
55009;SDS011;40903;51.638;7.528;2023-05-10T21:21:22;19.43;;;16.13;;
55009;SDS011;40903;51.638;7.528;2023-05-10T21:23:47;20.07;;;17.47;;
55009;SDS011;40903;51.638;7.528;2023-05-10T21:26:13;20.67;;;17.13;;
55009;SDS011;40903;51.638;7.528;2023-05-10T21:28:39;20.83;;;16.80;;
55009;SDS011;40903;51.638;7.528;2023-05-10T21:31:06;20.33;;;17.67;;
55009;SDS011;40903;51.638;7.528;2023-05-10T21:33:32;18.63;;;16.27;;
55009;SDS011;40903;51.638;7.528;2023-05-10T21:35:57;17.97;;;16.07;;
55009;SDS011;40903;51.638;7.528;2023-05-10T21:38:22;18.07;;;15.90;;
55009;SDS011;40903;51.638;7.528;2023-05-10T21:40:48;18.97;;;14.93;;
55009;SDS011;40903;51.638;7.528;2023-05-10T21:43:13;19.33;;;16.17;;
55009;SDS011;40903;51.638;7.528;2023-05-10T21:45:39;21.10;;;17.60;;
55009;SDS011;40903;51.638;7.528;2023-05-10T21:48:04;20.43;;;17.23;;
55009;SDS011;40903;51.638;7.528;2023-05-10T21:50:30;18.60;;;16.23;;
55009;SDS011;40903;51.638;7.528;2023-05-10T21:52:55;20.30;;;16.53;;
55009;SDS011;40903;51.638;7.528;2023-05-10T21:55:20;22.70;;;17.43;;
55009;SDS011;40903;51.638;7.528;2023-05-10T21:57:46;21.63;;;18.33;;
55009;SDS011;40903;51.638;7.528;2023-05-10T22:00:13;21.33;;;18.53;;
55009;SDS011;40903;51.638;7.528;2023-05-10T22:02:40;20.77;;;18.57;;
55009;SDS011;40903;51.638;7.528;2023-05-10T22:05:05;21.13;;;18.57;;
55009;SDS011;40903;51.638;7.528;2023-05-10T22:07:31;21.90;;;17.97;;
55009;SDS011;40903;51.638;7.528;2023-05-10T22:09:57;20.80;;;18.20;;
55009;SDS011;40903;51.638;7.528;2023-05-10T22:12:22;18.07;;;15.93;;
55009;SDS011;40903;51.638;7.528;2023-05-10T22:14:48;19.13;;;16.97;;
55009;SDS011;40903;51.638;7.528;2023-05-10T22:17:13;19.83;;;16.87;;
55009;SDS011;40903;51.638;7.528;2023-05-10T22:19:39;19.87;;;15.57;;
55009;SDS011;40903;51.638;7.528;2023-05-10T22:22:04;19.17;;;15.70;;
55009;SDS011;40903;51.638;7.528;2023-05-10T22:24:30;19.53;;;16.53;;
55009;SDS011;40903;51.638;7.528;2023-05-10T22:26:55;17.97;;;15.93;;
55009;SDS011;40903;51.638;7.528;2023-05-10T22:29:21;20.63;;;16.40;;
55009;SDS011;40903;51.638;7.528;2023-05-10T22:31:47;20.13;;;17.00;;
55009;SDS011;40903;51.638;7.528;2023-05-10T22:34:13;17.93;;;15.70;;
55009;SDS011;40903;51.638;7.528;2023-05-10T22:36:38;20.90;;;17.67;;
55009;SDS011;40903;51.638;7.528;2023-05-10T22:39:04;20.27;;;17.03;;
55009;SDS011;40903;51.638;7.528;2023-05-10T22:41:29;19.73;;;17.00;;
55009;SDS011;40903;51.638;7.528;2023-05-10T22:43:55;21.03;;;17.23;;
55009;SDS011;40903;51.638;7.528;2023-05-10T22:46:20;20.20;;;16.07;;
55009;SDS011;40903;51.638;7.528;2023-05-10T22:48:46;18.93;;;16.63;;
55009;SDS011;40903;51.638;7.528;2023-05-10T22:51:13;18.93;;;16.90;;
55009;SDS011;40903;51.638;7.528;2023-05-10T22:53:39;20.10;;;16.83;;
55009;SDS011;40903;51.638;7.528;2023-05-10T22:56:05;19.70;;;17.60;;
